createdAt,value
2023-04-09T00:00:48.789Z,16.70
2023-04-09T00:03:36.472Z,16.70
2023-04-09T00:06:05.652Z,16.70
2023-04-09T00:08:34.068Z,16.70
2023-04-09T00:11:02.697Z,16.70
2023-04-09T00:13:39.124Z,16.70
2023-04-09T00:16:08.798Z,16.70
2023-04-09T00:18:37.336Z,16.70
2023-04-09T00:21:07.269Z,16.70
2023-04-09T00:23:36.245Z,16.70
2023-04-09T00:26:05.523Z,16.70
2023-04-09T00:28:34.187Z,16.70
2023-04-09T00:31:03.429Z,16.70
2023-04-09T00:33:31.925Z,16.70
2023-04-09T00:36:00.950Z,16.70
2023-04-09T00:38:29.300Z,16.70
2023-04-09T00:40:57.919Z,16.70
2023-04-09T00:43:26.232Z,16.70
2023-04-09T00:45:54.994Z,16.70
2023-04-09T00:48:23.416Z,16.70
2023-04-09T00:50:52.066Z,16.70
2023-04-09T00:53:20.459Z,16.70
2023-04-09T00:55:48.997Z,16.70
2023-04-09T00:58:17.317Z,16.70
2023-04-09T01:00:46.045Z,16.70
2023-04-09T01:03:14.434Z,16.70
2023-04-09T01:06:03.407Z,16.70
2023-04-09T01:09:03.806Z,16.70
2023-04-09T01:11:58.033Z,16.70
2023-04-09T01:14:53.933Z,16.70
2023-04-09T01:18:05.143Z,16.70
2023-04-09T01:20:44.022Z,16.70
2023-04-09T01:23:41.482Z,16.70
2023-04-09T01:26:31.485Z,16.70
2023-04-09T01:29:00.142Z,16.60
2023-04-09T01:31:46.532Z,16.70
2023-04-09T01:34:15.583Z,16.70
2023-04-09T01:36:52.653Z,16.70
2023-04-09T01:39:21.673Z,16.60
2023-04-09T01:41:50.802Z,16.70
2023-04-09T01:44:19.976Z,16.70
2023-04-09T01:46:48.436Z,16.70
2023-04-09T01:49:17.686Z,16.70
2023-04-09T01:51:46.134Z,16.60
2023-04-09T01:54:16.541Z,16.60
2023-04-09T01:56:46.854Z,16.60
2023-04-09T01:59:16.343Z,16.60
2023-04-09T02:01:53.525Z,16.60
2023-04-09T02:04:41.100Z,16.60
2023-04-09T02:07:39.370Z,16.70
2023-04-09T02:10:09.936Z,16.60
2023-04-09T02:12:38.941Z,16.60
2023-04-09T02:15:08.127Z,16.70
2023-04-09T02:17:36.614Z,16.60
2023-04-09T02:20:07.126Z,16.70
2023-04-09T02:22:35.414Z,16.60
2023-04-09T02:25:04.285Z,16.70
2023-04-09T02:27:32.629Z,16.60
2023-04-09T02:30:01.612Z,16.60
2023-04-09T02:32:30.050Z,16.60
2023-04-09T02:34:58.760Z,16.60
2023-04-09T02:37:27.066Z,16.60
2023-04-09T02:39:55.924Z,16.60
2023-04-09T02:42:24.234Z,16.60
2023-04-09T02:44:52.794Z,16.60
2023-04-09T02:47:21.439Z,16.60
2023-04-09T02:49:50.177Z,16.60
2023-04-09T02:52:20.411Z,16.60
2023-04-09T02:54:49.066Z,16.60
2023-04-09T02:57:17.368Z,16.60
2023-04-09T02:59:46.742Z,16.60
2023-04-09T03:02:15.174Z,16.60
2023-04-09T03:04:44.008Z,16.60
2023-04-09T03:07:12.346Z,16.60
2023-04-09T03:09:40.936Z,16.60
2023-04-09T03:12:09.177Z,16.60
2023-04-09T03:14:37.983Z,16.60
2023-04-09T03:17:06.476Z,16.60
2023-04-09T03:19:35.114Z,16.60
2023-04-09T03:22:03.727Z,16.60
2023-04-09T03:24:33.986Z,16.60
2023-04-09T03:27:05.660Z,16.60
2023-04-09T03:29:34.911Z,16.60
2023-04-09T03:32:03.709Z,16.60
2023-04-09T03:34:32.368Z,16.60
2023-04-09T03:37:01.082Z,16.60
2023-04-09T03:39:32.925Z,16.60
2023-04-09T03:42:02.093Z,16.60
2023-04-09T03:44:41.009Z,16.60
2023-04-09T03:47:12.753Z,16.60
2023-04-09T03:49:41.680Z,16.60
2023-04-09T03:52:30.528Z,16.60
2023-04-09T03:55:07.961Z,16.60
2023-04-09T03:57:37.211Z,16.60
2023-04-09T04:00:11.174Z,16.60
2023-04-09T04:03:06.173Z,16.60
2023-04-09T04:06:03.270Z,16.60
2023-04-09T04:08:41.544Z,16.60
2023-04-09T04:11:11.727Z,16.60
2023-04-09T04:13:41.284Z,16.60
2023-04-09T04:16:11.981Z,16.60
2023-04-09T04:18:43.719Z,16.60
2023-04-09T04:21:16.492Z,16.60
2023-04-09T04:23:49.702Z,16.60
2023-04-09T04:26:21.984Z,16.50
2023-04-09T04:28:50.825Z,16.50
2023-04-09T04:31:34.534Z,16.50
2023-04-09T04:34:03.858Z,16.60
2023-04-09T04:36:32.731Z,16.60
2023-04-09T04:39:01.167Z,16.50
2023-04-09T04:41:39.144Z,16.50
2023-04-09T04:44:16.214Z,16.60
2023-04-09T04:46:44.924Z,16.50
2023-04-09T04:49:13.296Z,16.50
2023-04-09T04:51:49.875Z,16.50
2023-04-09T04:54:18.870Z,16.60
2023-04-09T04:56:53.762Z,16.60
2023-04-09T04:59:54.505Z,16.60
2023-04-09T05:02:23.893Z,16.50
2023-04-09T05:05:16.016Z,16.60
2023-04-09T05:07:53.747Z,16.60
2023-04-09T05:10:23.239Z,16.50
2023-04-09T05:12:51.917Z,16.60
2023-04-09T05:15:28.983Z,16.50
2023-04-09T05:17:58.383Z,16.60
2023-04-09T05:20:28.481Z,16.60
2023-04-09T05:23:06.364Z,16.50
2023-04-09T05:25:41.275Z,16.60
2023-04-09T05:28:19.364Z,16.50
2023-04-09T05:30:51.688Z,16.60
2023-04-09T05:33:21.366Z,16.60
2023-04-09T05:35:53.074Z,16.60
2023-04-09T05:38:22.477Z,16.50
2023-04-09T05:40:57.577Z,16.60
2023-04-09T05:43:26.727Z,16.60
2023-04-09T05:45:55.149Z,16.60
2023-04-09T05:48:24.503Z,16.60
2023-04-09T05:50:55.770Z,16.60
2023-04-09T05:53:27.744Z,16.60
2023-04-09T05:55:56.357Z,16.50
2023-04-09T05:58:29.846Z,16.60
2023-04-09T06:00:59.529Z,16.60
2023-04-09T06:03:28.953Z,16.60
2023-04-09T06:05:57.433Z,16.60
2023-04-09T06:08:26.043Z,16.60
2023-04-09T06:10:54.347Z,16.60
2023-04-09T06:13:24.609Z,16.60
2023-04-09T06:15:53.091Z,16.60
2023-04-09T06:18:22.271Z,16.70
2023-04-09T06:20:50.492Z,16.60
2023-04-09T06:23:19.257Z,16.60
2023-04-09T06:25:47.506Z,16.60
2023-04-09T06:28:16.618Z,16.60
2023-04-09T06:30:44.964Z,16.70
2023-04-09T06:33:13.713Z,16.60
2023-04-09T06:35:42.597Z,16.60
2023-04-09T06:38:11.334Z,16.60
2023-04-09T06:40:39.799Z,16.60
2023-04-09T06:43:08.440Z,16.60
2023-04-09T06:45:51.656Z,16.70
2023-04-09T06:48:20.665Z,16.70
2023-04-09T06:50:49.188Z,16.70
2023-04-09T06:53:18.425Z,16.70
2023-04-09T06:55:46.682Z,16.70
2023-04-09T06:58:16.650Z,16.70
2023-04-09T07:00:45.096Z,16.70
2023-04-09T07:03:15.004Z,16.70
2023-04-09T07:05:43.499Z,16.70
2023-04-09T07:08:12.641Z,16.70
2023-04-09T07:10:41.121Z,16.70
2023-04-09T07:13:09.926Z,16.70
2023-04-09T07:15:40.014Z,16.70
2023-04-09T07:18:10.594Z,16.70
2023-04-09T07:20:39.162Z,16.70
2023-04-09T07:23:07.857Z,16.70
2023-04-09T07:25:36.667Z,16.70
2023-04-09T07:28:05.508Z,16.70
2023-04-09T07:30:33.874Z,16.60
2023-04-09T07:33:02.714Z,16.50
2023-04-09T07:35:32.389Z,16.40
2023-04-09T07:38:01.167Z,16.40
2023-04-09T07:40:29.694Z,16.40
2023-04-09T07:42:58.553Z,16.30
2023-04-09T07:45:26.976Z,16.30
2023-04-09T07:47:56.277Z,16.30
2023-04-09T07:50:24.690Z,16.20
2023-04-09T07:52:53.424Z,16.20
2023-04-09T07:55:21.903Z,16.10
2023-04-09T07:57:51.836Z,16.10
2023-04-09T08:00:20.087Z,16.10
2023-04-09T08:02:48.985Z,16.20
2023-04-09T08:05:17.636Z,16.20
2023-04-09T08:07:46.667Z,16.30
2023-04-09T08:10:16.378Z,16.20
2023-04-09T08:12:45.100Z,16.30
2023-04-09T08:15:13.382Z,16.30
2023-04-09T08:17:41.944Z,16.40
2023-04-09T08:20:11.453Z,16.40
2023-04-09T08:22:41.248Z,16.40
2023-04-09T08:25:09.663Z,16.40
2023-04-09T08:27:39.891Z,16.30
2023-04-09T08:30:09.206Z,16.40
2023-04-09T08:32:38.029Z,16.50
2023-04-09T08:35:07.466Z,16.50
2023-04-09T08:37:36.137Z,16.50
2023-04-09T08:40:04.998Z,16.40
2023-04-09T08:42:36.020Z,16.30
2023-04-09T08:45:05.626Z,16.40
2023-04-09T08:47:34.519Z,16.40
2023-04-09T08:50:02.914Z,16.40
2023-04-09T08:52:33.332Z,16.30
2023-04-09T08:55:01.813Z,16.30
2023-04-09T08:57:30.878Z,16.20
2023-04-09T08:59:59.245Z,16.30
2023-04-09T09:02:28.151Z,16.30
2023-04-09T09:05:00.986Z,16.30
2023-04-09T09:07:30.723Z,16.30
2023-04-09T09:10:02.729Z,16.40
2023-04-09T09:12:40.390Z,16.50
2023-04-09T09:15:29.144Z,16.50
2023-04-09T09:17:59.945Z,16.60
2023-04-09T09:20:29.601Z,16.60
2023-04-09T09:22:58.635Z,16.70
2023-04-09T09:25:26.986Z,16.70
2023-04-09T09:27:55.589Z,16.70
2023-04-09T09:30:27.672Z,16.70
2023-04-09T09:33:12.412Z,16.70
2023-04-09T09:35:51.571Z,16.70
2023-04-09T09:38:20.787Z,16.80
2023-04-09T09:40:49.902Z,16.80
2023-04-09T09:43:18.456Z,16.80
2023-04-09T09:45:47.984Z,16.80
2023-04-09T09:48:16.689Z,16.80
2023-04-09T09:50:44.987Z,16.80
2023-04-09T09:53:13.830Z,16.80
2023-04-09T09:55:43.964Z,16.80
2023-04-09T09:58:34.686Z,16.80
2023-04-09T10:01:03.902Z,16.80
2023-04-09T10:03:33.182Z,16.80
2023-04-09T10:06:01.979Z,16.80
2023-04-09T10:08:33.796Z,16.80
2023-04-09T10:11:02.472Z,16.80
2023-04-09T10:13:52.898Z,16.80
2023-04-09T10:16:23.625Z,16.80
2023-04-09T10:18:52.707Z,16.80
2023-04-09T10:21:45.656Z,16.80
2023-04-09T10:24:14.342Z,16.80
2023-04-09T10:26:45.157Z,16.80
2023-04-09T10:29:17.009Z,16.80
2023-04-09T10:31:51.673Z,16.90
2023-04-09T10:34:24.767Z,16.90
2023-04-09T10:37:03.203Z,16.80
2023-04-09T10:39:32.406Z,16.90
2023-04-09T10:42:04.838Z,16.90
2023-04-09T10:44:36.006Z,16.90
2023-04-09T10:47:06.047Z,16.90
2023-04-09T10:49:42.039Z,16.90
2023-04-09T10:52:14.276Z,16.90
2023-04-09T10:54:47.163Z,16.90
2023-04-09T10:57:22.590Z,16.90
2023-04-09T10:59:54.124Z,16.90
2023-04-09T11:02:45.954Z,16.90
2023-04-09T11:05:38.556Z,16.90
2023-04-09T11:08:14.175Z,16.90
2023-04-09T11:10:45.143Z,16.90
2023-04-09T11:13:15.020Z,16.90
2023-04-09T11:15:44.709Z,16.90
2023-04-09T11:18:29.508Z,16.90
2023-04-09T11:21:03.320Z,16.90
2023-04-09T11:23:32.302Z,16.90
2023-04-09T11:26:02.139Z,16.90
2023-04-09T11:28:30.453Z,16.90
2023-04-09T11:30:59.364Z,16.90
2023-04-09T11:33:34.628Z,16.90
2023-04-09T11:36:06.640Z,16.90
2023-04-09T11:38:36.777Z,16.90
2023-04-09T11:41:05.644Z,16.90
2023-04-09T11:43:36.596Z,16.90
2023-04-09T11:46:06.308Z,16.90
2023-04-09T11:48:34.904Z,16.90
2023-04-09T11:51:04.516Z,17.00
2023-04-09T11:53:32.906Z,17.00
2023-04-09T11:56:01.799Z,16.90
2023-04-09T11:58:30.126Z,17.00
2023-04-09T12:00:59.415Z,17.00
2023-04-09T12:03:33.155Z,17.00
2023-04-09T12:06:03.284Z,17.00
2023-04-09T12:08:32.015Z,17.00
2023-04-09T12:11:12.826Z,17.00
2023-04-09T12:13:44.856Z,16.90
2023-04-09T12:16:14.340Z,17.00
2023-04-09T12:18:42.883Z,17.00
2023-04-09T12:21:11.657Z,17.00
2023-04-09T12:23:39.997Z,17.00
2023-04-09T12:26:08.572Z,17.00
2023-04-09T12:28:37.205Z,17.00
2023-04-09T12:31:09.582Z,17.00
2023-04-09T12:33:39.133Z,17.00
2023-04-09T12:36:08.137Z,17.00
2023-04-09T12:38:36.777Z,17.00
2023-04-09T12:41:05.865Z,17.00
2023-04-09T12:43:34.250Z,17.00
2023-04-09T12:46:03.135Z,17.00
2023-04-09T12:48:31.777Z,17.00
2023-04-09T12:51:00.732Z,17.00
2023-04-09T12:53:29.277Z,17.00
2023-04-09T12:55:58.144Z,17.10
2023-04-09T12:58:26.465Z,17.10
2023-04-09T13:00:57.154Z,17.10
2023-04-09T13:03:26.073Z,17.10
2023-04-09T13:05:54.822Z,17.10
2023-04-09T13:08:23.143Z,17.10
2023-04-09T13:10:51.916Z,17.00
2023-04-09T13:13:20.222Z,17.10
2023-04-09T13:15:48.780Z,17.00
2023-04-09T13:18:17.101Z,17.00
2023-04-09T13:20:45.718Z,17.00
2023-04-09T13:23:14.058Z,17.00
2023-04-09T13:25:42.697Z,17.00
2023-04-09T13:28:11.180Z,17.00
2023-04-09T13:30:39.858Z,17.00
2023-04-09T13:33:08.320Z,17.00
2023-04-09T13:35:37.026Z,17.00
2023-04-09T13:38:05.566Z,17.00
2023-04-09T13:40:34.194Z,17.10
2023-04-09T13:43:02.564Z,17.10
2023-04-09T13:45:33.626Z,17.00
2023-04-09T13:48:02.023Z,17.00
2023-04-09T13:50:31.035Z,17.00
2023-04-09T13:52:59.583Z,17.00
2023-04-09T13:55:31.193Z,17.10
2023-04-09T13:57:59.549Z,17.10
2023-04-09T14:00:28.193Z,17.00
2023-04-09T14:02:56.745Z,17.10
2023-04-09T14:05:26.017Z,17.10
2023-04-09T14:07:54.354Z,17.10
2023-04-09T14:10:23.404Z,17.10
2023-04-09T14:12:52.210Z,17.10
2023-04-09T14:15:20.873Z,17.00
2023-04-09T14:17:49.218Z,17.00
2023-04-09T14:20:20.180Z,17.00
2023-04-09T14:22:49.682Z,17.00
2023-04-09T14:25:18.382Z,17.00
2023-04-09T14:27:47.143Z,17.00
2023-04-09T14:30:15.949Z,17.00
2023-04-09T14:32:44.865Z,17.00
2023-04-09T14:35:13.473Z,17.00
2023-04-09T14:37:41.788Z,17.00
2023-04-09T14:40:10.896Z,17.00
2023-04-09T14:42:41.514Z,17.00
2023-04-09T14:45:11.232Z,17.00
2023-04-09T14:47:39.765Z,17.00
2023-04-09T14:50:10.390Z,17.00
2023-04-09T14:52:39.077Z,17.00
2023-04-09T14:55:12.495Z,17.00
2023-04-09T14:57:42.146Z,17.00
2023-04-09T15:00:12.267Z,17.00
2023-04-09T15:02:41.668Z,17.00
2023-04-09T15:05:11.292Z,16.90
2023-04-09T15:07:39.862Z,17.00
2023-04-09T15:10:09.297Z,17.00
2023-04-09T15:12:37.572Z,17.00
2023-04-09T15:15:08.374Z,17.00
2023-04-09T15:17:36.883Z,17.00
2023-04-09T15:20:06.425Z,17.00
2023-04-09T15:22:34.837Z,17.00
2023-04-09T15:25:04.016Z,17.00
2023-04-09T15:27:32.339Z,17.00
2023-04-09T15:30:01.091Z,17.00
2023-04-09T15:32:31.202Z,17.00
2023-04-09T15:35:01.254Z,17.00
2023-04-09T15:37:29.670Z,17.00
2023-04-09T15:39:58.268Z,17.00
2023-04-09T15:42:27.281Z,17.00
2023-04-09T15:44:56.153Z,17.00
2023-04-09T15:47:24.557Z,17.00
2023-04-09T15:49:53.303Z,17.00
2023-04-09T15:52:21.720Z,17.00
2023-04-09T15:54:50.476Z,16.90
2023-04-09T15:57:19.693Z,16.90
2023-04-09T15:59:48.602Z,16.90
2023-04-09T16:02:17.009Z,16.90
2023-04-09T16:04:45.957Z,16.90
2023-04-09T16:07:17.556Z,16.90
2023-04-09T16:09:46.728Z,16.90
2023-04-09T16:12:14.998Z,16.90
2023-04-09T16:14:43.771Z,16.90
2023-04-09T16:17:12.205Z,16.90
2023-04-09T16:19:42.292Z,16.90
2023-04-09T16:22:11.596Z,16.90
2023-04-09T16:24:40.637Z,16.90
2023-04-09T16:27:08.990Z,16.90
2023-04-09T16:29:37.705Z,16.90
2023-04-09T16:32:06.338Z,16.90
2023-04-09T16:34:35.181Z,16.90
2023-04-09T16:37:03.621Z,16.90
2023-04-09T16:39:32.323Z,16.90
2023-04-09T16:42:01.710Z,16.90
2023-04-09T16:44:30.814Z,16.80
2023-04-09T16:46:59.220Z,16.90
2023-04-09T16:49:27.852Z,16.90
2023-04-09T16:51:57.557Z,16.90
2023-04-09T16:54:26.390Z,16.90
2023-04-09T16:56:57.381Z,16.80
2023-04-09T16:59:26.070Z,16.90
2023-04-09T17:01:54.628Z,16.90
2023-04-09T17:04:23.656Z,16.80
2023-04-09T17:06:52.048Z,16.90
2023-04-09T17:09:21.011Z,16.80
2023-04-09T17:11:49.351Z,16.90
2023-04-09T17:14:18.274Z,16.80
2023-04-09T17:16:47.211Z,16.80
2023-04-09T17:19:16.039Z,16.80
2023-04-09T17:21:44.344Z,16.80
2023-04-09T17:24:13.280Z,16.80
2023-04-09T17:26:41.891Z,16.80
2023-04-09T17:29:10.649Z,16.80
2023-04-09T17:31:39.207Z,16.80
2023-04-09T17:34:08.767Z,16.80
2023-04-09T17:36:37.464Z,16.80
2023-04-09T17:39:06.594Z,16.80
2023-04-09T17:41:35.142Z,16.80
2023-04-09T17:44:03.915Z,16.80
2023-04-09T17:46:32.351Z,16.80
2023-04-09T17:49:01.106Z,16.80
2023-04-09T17:51:29.394Z,16.80
2023-04-09T17:53:58.399Z,16.80
2023-04-09T17:56:27.303Z,16.80
2023-04-09T17:58:57.372Z,16.80
2023-04-09T18:01:25.726Z,16.80
2023-04-09T18:03:55.091Z,16.80
2023-04-09T18:06:23.804Z,16.80
2023-04-09T18:08:53.637Z,16.80
2023-04-09T18:11:23.971Z,16.80
2023-04-09T18:13:52.651Z,16.80
2023-04-09T18:16:23.502Z,16.80
2023-04-09T18:18:52.642Z,16.80
2023-04-09T18:21:22.286Z,16.80
2023-04-09T18:23:51.314Z,16.80
2023-04-09T18:26:19.621Z,16.80
2023-04-09T18:28:48.549Z,16.80
2023-04-09T18:31:17.166Z,16.80
2023-04-09T18:33:45.773Z,16.80
2023-04-09T18:36:14.438Z,16.80
2023-04-09T18:38:43.692Z,16.80
2023-04-09T18:41:16.754Z,16.80
2023-04-09T18:43:45.950Z,16.80
2023-04-09T18:46:14.336Z,16.80
2023-04-09T18:48:49.401Z,16.80
2023-04-09T18:51:20.206Z,16.80
2023-04-09T18:53:54.971Z,16.80
2023-04-09T18:56:23.337Z,16.80
2023-04-09T18:58:52.300Z,16.80
2023-04-09T19:01:21.430Z,16.80
2023-04-09T19:03:50.691Z,16.80
2023-04-09T19:06:20.042Z,16.80
2023-04-09T19:08:50.256Z,16.80
2023-04-09T19:11:18.752Z,16.80
2023-04-09T19:13:47.804Z,16.80
2023-04-09T19:16:17.283Z,16.80
2023-04-09T19:18:47.287Z,16.80
2023-04-09T19:21:18.075Z,16.80
2023-04-09T19:23:47.161Z,16.80
2023-04-09T19:26:15.972Z,16.80
2023-04-09T19:28:46.075Z,16.80
2023-04-09T19:31:14.845Z,16.80
2023-04-09T19:33:46.317Z,16.80
2023-04-09T19:36:14.645Z,16.80
2023-04-09T19:38:43.623Z,16.80
2023-04-09T19:41:12.218Z,16.80
2023-04-09T19:43:42.303Z,16.80
2023-04-09T19:46:10.784Z,16.80
2023-04-09T19:48:41.236Z,16.80
2023-04-09T19:51:17.431Z,16.80
2023-04-09T19:53:49.556Z,16.80
2023-04-09T19:56:18.786Z,16.80
2023-04-09T19:58:48.290Z,16.80
2023-04-09T20:01:17.505Z,16.80
2023-04-09T20:03:47.295Z,16.80
2023-04-09T20:06:16.611Z,16.80
2023-04-09T20:08:45.713Z,16.80
2023-04-09T20:11:18.547Z,16.80
2023-04-09T20:13:48.282Z,16.80
2023-04-09T20:16:16.756Z,16.80
2023-04-09T20:18:45.540Z,16.80
2023-04-09T20:21:14.606Z,16.80
2023-04-09T20:23:45.526Z,16.80
2023-04-09T20:26:13.920Z,16.80
2023-04-09T20:28:42.697Z,16.80
2023-04-09T20:31:11.194Z,16.80
2023-04-09T20:33:39.856Z,16.80
2023-04-09T20:36:18.782Z,16.80
2023-04-09T20:38:48.714Z,16.80
2023-04-09T20:41:17.548Z,16.80
2023-04-09T20:43:47.258Z,16.80
2023-04-09T20:46:16.712Z,16.80
2023-04-09T20:48:46.316Z,16.80
2023-04-09T20:51:15.580Z,16.80
2023-04-09T20:53:46.356Z,16.80
2023-04-09T20:56:16.297Z,16.80
2023-04-09T20:58:45.767Z,16.80
2023-04-09T21:01:15.052Z,16.80
2023-04-09T21:03:45.510Z,16.80
2023-04-09T21:06:14.826Z,16.80
2023-04-09T21:08:44.416Z,16.80
2023-04-09T21:11:13.196Z,16.80
2023-04-09T21:13:53.924Z,16.80
2023-04-09T21:16:23.611Z,16.80
2023-04-09T21:18:53.091Z,16.80
2023-04-09T21:21:21.724Z,16.80
2023-04-09T21:23:50.758Z,16.80
2023-04-09T21:26:19.843Z,16.80
2023-04-09T21:28:50.726Z,16.80
2023-04-09T21:31:19.308Z,16.80
2023-04-09T21:33:48.234Z,16.80
2023-04-09T21:36:16.802Z,16.80
2023-04-09T21:38:45.494Z,16.80
2023-04-09T21:41:14.159Z,16.80
2023-04-09T21:43:43.007Z,16.80
2023-04-09T21:46:11.515Z,16.80
2023-04-09T21:48:41.008Z,16.80
2023-04-09T21:51:12.343Z,16.80
2023-04-09T21:53:41.410Z,16.80
2023-04-09T21:56:10.165Z,16.80
2023-04-09T21:58:38.963Z,16.80
2023-04-09T22:01:15.799Z,16.80
2023-04-09T22:03:51.696Z,16.80
2023-04-09T22:06:20.205Z,16.80
2023-04-09T22:08:55.615Z,16.80
2023-04-09T22:11:28.091Z,16.80
2023-04-09T22:13:57.903Z,16.80
2023-04-09T22:16:26.626Z,16.80
2023-04-09T22:18:55.818Z,16.80
2023-04-09T22:21:24.311Z,16.80
2023-04-09T22:23:53.259Z,16.80
2023-04-09T22:26:22.156Z,16.80
2023-04-09T22:28:51.123Z,16.70
2023-04-09T22:31:20.053Z,16.80
2023-04-09T22:33:48.863Z,16.70
2023-04-09T22:36:17.370Z,16.80
2023-04-09T22:38:46.351Z,16.80
2023-04-09T22:41:16.164Z,16.80
2023-04-09T22:43:44.917Z,16.80
2023-04-09T22:46:13.283Z,16.70
2023-04-09T22:48:44.911Z,16.80
2023-04-09T22:51:14.645Z,16.80
2023-04-09T22:53:43.353Z,16.80
2023-04-09T22:56:12.765Z,16.80
2023-04-09T22:58:41.710Z,16.80
2023-04-09T23:01:10.158Z,16.70
2023-04-09T23:03:38.998Z,16.80
2023-04-09T23:06:07.429Z,16.80
2023-04-09T23:08:36.548Z,16.80
2023-04-09T23:11:07.417Z,16.70
2023-04-09T23:13:37.622Z,16.80
2023-04-09T23:16:08.030Z,16.80
2023-04-09T23:18:36.983Z,16.80
2023-04-09T23:21:11.104Z,16.80
2023-04-09T23:23:39.850Z,16.70
2023-04-09T23:26:08.298Z,16.80
2023-04-09T23:28:37.266Z,16.80
2023-04-09T23:31:06.982Z,16.80
2023-04-09T23:33:35.673Z,16.70
2023-04-09T23:36:04.303Z,16.70
2023-04-09T23:38:32.979Z,16.70
2023-04-09T23:41:01.670Z,16.70
2023-04-09T23:43:30.422Z,16.80
2023-04-09T23:45:58.742Z,16.70
2023-04-09T23:48:27.689Z,16.70
2023-04-09T23:50:55.942Z,16.80
2023-04-09T23:53:25.177Z,16.70
2023-04-09T23:55:53.511Z,16.80
2023-04-09T23:58:22.523Z,16.80
